sensor_id;sensor_type;location;lat;lon;timestamp;pressure;altitude;pressure_sealevel;temperature;humidity
62708;BME280;48769;51.624;5.886;2023-08-21T00:00:00;102121.63;;;21.56;100.00
62708;BME280;48769;51.624;5.886;2023-08-21T00:02:25;102117.47;;;21.52;100.00
62708;BME280;48769;51.624;5.886;2023-08-21T00:04:53;102112.34;;;21.49;100.00
62708;BME280;48769;51.624;5.886;2023-08-21T00:07:18;102112.06;;;21.41;100.00
62708;BME280;48769;51.624;5.886;2023-08-21T00:09:43;102117.56;;;21.39;100.00
62708;BME280;48769;51.624;5.886;2023-08-21T00:12:09;102121.34;;;21.37;100.00
62708;BME280;48769;51.624;5.886;2023-08-21T00:14:34;102106.91;;;21.38;100.00
62708;BME280;48769;51.624;5.886;2023-08-21T00:16:59;102116.94;;;21.36;100.00
62708;BME280;48769;51.624;5.886;2023-08-21T00:19:25;102114.25;;;21.36;100.00
62708;BME280;48769;51.624;5.886;2023-08-21T00:21:50;102114.47;;;21.33;100.00
62708;BME280;48769;51.624;5.886;2023-08-21T00:24:15;102118.09;;;21.32;100.00
62708;BME280;48769;51.624;5.886;2023-08-21T00:26:41;102108.47;;;21.29;100.00
62708;BME280;48769;51.624;5.886;2023-08-21T00:29:06;102103.44;;;21.24;100.00
62708;BME280;48769;51.624;5.886;2023-08-21T00:31:31;102109.03;;;21.21;100.00
62708;BME280;48769;51.624;5.886;2023-08-21T00:33:59;102102.09;;;21.19;100.00
62708;BME280;48769;51.624;5.886;2023-08-21T00:36:27;102103.41;;;21.13;100.00
62708;BME280;48769;51.624;5.886;2023-08-21T00:38:53;102110.94;;;21.08;100.00
62708;BME280;48769;51.624;5.886;2023-08-21T00:41:18;102106.78;;;21.04;100.00
62708;BME280;48769;51.624;5.886;2023-08-21T00:43:43;102107.25;;;20.98;100.00
62708;BME280;48769;51.624;5.886;2023-08-21T00:46:09;102109.19;;;20.96;100.00
62708;BME280;48769;51.624;5.886;2023-08-21T00:48:35;102106.97;;;20.90;100.00
62708;BME280;48769;51.624;5.886;2023-08-21T00:51:01;102108.06;;;20.87;100.00
62708;BME280;48769;51.624;5.886;2023-08-21T00:53:26;102106.97;;;20.90;100.00
62708;BME280;48769;51.624;5.886;2023-08-21T00:55:52;102115.03;;;20.90;100.00
62708;BME280;48769;51.624;5.886;2023-08-21T00:58:17;102116.00;;;20.89;100.00
62708;BME280;48769;51.624;5.886;2023-08-21T01:00:45;102110.84;;;20.86;100.00
62708;BME280;48769;51.624;5.886;2023-08-21T01:03:11;102116.97;;;20.88;100.00
62708;BME280;48769;51.624;5.886;2023-08-21T01:05:36;102106.22;;;20.88;100.00
62708;BME280;48769;51.624;5.886;2023-08-21T01:08:05;102099.88;;;20.89;100.00
62708;BME280;48769;51.624;5.886;2023-08-21T01:13:47;102115.59;;;20.82;100.00
62708;BME280;48769;51.624;5.886;2023-08-21T01:16:14;102108.84;;;20.76;100.00
62708;BME280;48769;51.624;5.886;2023-08-21T01:18:42;102101.91;;;20.74;100.00
62708;BME280;48769;51.624;5.886;2023-08-21T01:21:08;102099.53;;;20.69;100.00
62708;BME280;48769;51.624;5.886;2023-08-21T01:23:35;102098.06;;;20.65;100.00
62708;BME280;48769;51.624;5.886;2023-08-21T01:26:00;102100.97;;;20.62;100.00
62708;BME280;48769;51.624;5.886;2023-08-21T01:28:26;102103.25;;;20.56;100.00
62708;BME280;48769;51.624;5.886;2023-08-21T01:30:57;102099.16;;;20.50;100.00
62708;BME280;48769;51.624;5.886;2023-08-21T01:33:30;102097.66;;;20.46;100.00
62708;BME280;48769;51.624;5.886;2023-08-21T01:36:00;102104.88;;;20.45;100.00
62708;BME280;48769;51.624;5.886;2023-08-21T01:38:32;102104.75;;;20.47;100.00
62708;BME280;48769;51.624;5.886;2023-08-21T01:40:58;102099.38;;;20.47;100.00
62708;BME280;48769;51.624;5.886;2023-08-21T01:43:23;102101.34;;;20.45;100.00
62708;BME280;48769;51.624;5.886;2023-08-21T01:45:49;102103.78;;;20.48;100.00
62708;BME280;48769;51.624;5.886;2023-08-21T01:48:14;102092.94;;;20.49;100.00
62708;BME280;48769;51.624;5.886;2023-08-21T01:50:39;102089.25;;;20.50;100.00
62708;BME280;48769;51.624;5.886;2023-08-21T01:53:05;102095.56;;;20.51;100.00
62708;BME280;48769;51.624;5.886;2023-08-21T01:55:30;102093.91;;;20.48;100.00
62708;BME280;48769;51.624;5.886;2023-08-21T01:57:55;102090.47;;;20.46;100.00
62708;BME280;48769;51.624;5.886;2023-08-21T02:00:21;102091.53;;;20.44;100.00
62708;BME280;48769;51.624;5.886;2023-08-21T02:02:46;102093.59;;;20.40;100.00
62708;BME280;48769;51.624;5.886;2023-08-21T02:05:11;102096.22;;;20.29;100.00
62708;BME280;48769;51.624;5.886;2023-08-21T02:07:36;102096.66;;;20.23;100.00
62708;BME280;48769;51.624;5.886;2023-08-21T02:10:02;102095.59;;;20.25;100.00
62708;BME280;48769;51.624;5.886;2023-08-21T02:12:27;102094.16;;;20.33;100.00
62708;BME280;48769;51.624;5.886;2023-08-21T02:14:53;102101.78;;;20.39;100.00
62708;BME280;48769;51.624;5.886;2023-08-21T02:17:18;102099.59;;;20.44;100.00
62708;BME280;48769;51.624;5.886;2023-08-21T02:19:43;102102.19;;;20.45;100.00
62708;BME280;48769;51.624;5.886;2023-08-21T02:22:08;102092.31;;;20.46;100.00
62708;BME280;48769;51.624;5.886;2023-08-21T02:24:34;102092.53;;;20.43;100.00
62708;BME280;48769;51.624;5.886;2023-08-21T02:26:59;102094.44;;;20.41;100.00
62708;BME280;48769;51.624;5.886;2023-08-21T02:29:24;102092.97;;;20.37;100.00
62708;BME280;48769;51.624;5.886;2023-08-21T02:31:49;102094.16;;;20.33;100.00
62708;BME280;48769;51.624;5.886;2023-08-21T02:34:15;102088.03;;;20.30;100.00
62708;BME280;48769;51.624;5.886;2023-08-21T02:36:40;102086.56;;;20.26;100.00
62708;BME280;48769;51.624;5.886;2023-08-21T02:39:05;102084.31;;;20.20;100.00
62708;BME280;48769;51.624;5.886;2023-08-21T02:41:31;102090.47;;;20.10;100.00
62708;BME280;48769;51.624;5.886;2023-08-21T02:43:56;102090.50;;;19.97;100.00
62708;BME280;48769;51.624;5.886;2023-08-21T02:46:21;102080.84;;;19.94;100.00
62708;BME280;48769;51.624;5.886;2023-08-21T02:48:47;102088.38;;;19.89;100.00
62708;BME280;48769;51.624;5.886;2023-08-21T02:51:12;102094.59;;;19.90;100.00
62708;BME280;48769;51.624;5.886;2023-08-21T02:53:37;102094.59;;;19.90;100.00
62708;BME280;48769;51.624;5.886;2023-08-21T02:56:03;102098.22;;;19.89;100.00
62708;BME280;48769;51.624;5.886;2023-08-21T02:58:28;102093.94;;;19.86;100.00
62708;BME280;48769;51.624;5.886;2023-08-21T03:00:56;102093.31;;;19.82;100.00
62708;BME280;48769;51.624;5.886;2023-08-21T03:03:22;102087.94;;;19.82;100.00
62708;BME280;48769;51.624;5.886;2023-08-21T03:05:47;102094.38;;;19.80;100.00
62708;BME280;48769;51.624;5.886;2023-08-21T03:08:12;102095.44;;;19.77;100.00
62708;BME280;48769;51.624;5.886;2023-08-21T03:10:38;102098.22;;;19.76;100.00
62708;BME280;48769;51.624;5.886;2023-08-21T03:13:04;102096.53;;;19.75;100.00
62708;BME280;48769;51.624;5.886;2023-08-21T03:15:29;102090.50;;;19.71;100.00
62708;BME280;48769;51.624;5.886;2023-08-21T03:17:55;102095.03;;;19.71;100.00
62708;BME280;48769;51.624;5.886;2023-08-21T03:20:20;102095.78;;;19.73;100.00
62708;BME280;48769;51.624;5.886;2023-08-21T03:22:46;102104.69;;;19.73;100.00
62708;BME280;48769;51.624;5.886;2023-08-21T03:25:11;102105.53;;;19.74;100.00
62708;BME280;48769;51.624;5.886;2023-08-21T03:27:37;102095.66;;;19.74;100.00
62708;BME280;48769;51.624;5.886;2023-08-21T03:30:08;102094.81;;;19.74;100.00
62708;BME280;48769;51.624;5.886;2023-08-21T03:32:33;102093.97;;;19.73;100.00
62708;BME280;48769;51.624;5.886;2023-08-21T03:34:59;102098.34;;;19.74;100.00
62708;BME280;48769;51.624;5.886;2023-08-21T03:37:24;102098.47;;;19.73;100.00
62708;BME280;48769;51.624;5.886;2023-08-21T03:39:49;102098.56;;;19.71;100.00
62708;BME280;48769;51.624;5.886;2023-08-21T03:42:15;102094.25;;;19.69;100.00
62708;BME280;48769;51.624;5.886;2023-08-21T03:44:40;102099.75;;;19.67;100.00
62708;BME280;48769;51.624;5.886;2023-08-21T03:47:05;102096.31;;;19.65;100.00
62708;BME280;48769;51.624;5.886;2023-08-21T03:49:31;102091.78;;;19.66;100.00
62708;BME280;48769;51.624;5.886;2023-08-21T03:51:56;102087.41;;;19.65;100.00
62708;BME280;48769;51.624;5.886;2023-08-21T03:54:21;102089.41;;;19.61;100.00
62708;BME280;48769;51.624;5.886;2023-08-21T03:56:46;102089.84;;;19.55;100.00
62708;BME280;48769;51.624;5.886;2023-08-21T03:59:12;102087.78;;;19.46;100.00
62708;BME280;48769;51.624;5.886;2023-08-21T04:01:37;102095.63;;;19.49;100.00
62708;BME280;48769;51.624;5.886;2023-08-21T04:04:03;102098.31;;;19.49;100.00
62708;BME280;48769;51.624;5.886;2023-08-21T04:06:28;102087.50;;;19.50;100.00
62708;BME280;48769;51.624;5.886;2023-08-21T04:08:53;102091.13;;;19.49;100.00
62708;BME280;48769;51.624;5.886;2023-08-21T04:11:19;102099.28;;;19.48;100.00
62708;BME280;48769;51.624;5.886;2023-08-21T04:13:44;102095.84;;;19.46;100.00
62708;BME280;48769;51.624;5.886;2023-08-21T04:16:09;102098.50;;;19.46;100.00
62708;BME280;48769;51.624;5.886;2023-08-21T04:18:35;102098.44;;;19.47;100.00
62708;BME280;48769;51.624;5.886;2023-08-21T04:21:02;102098.44;;;19.47;100.00
62708;BME280;48769;51.624;5.886;2023-08-21T04:23:27;102099.56;;;19.43;100.00
62708;BME280;48769;51.624;5.886;2023-08-21T04:25:52;102101.81;;;19.36;100.00
62708;BME280;48769;51.624;5.886;2023-08-21T04:28:18;102096.66;;;19.33;100.00
62708;BME280;48769;51.624;5.886;2023-08-21T04:30:46;102101.38;;;19.30;100.00
62708;BME280;48769;51.624;5.886;2023-08-21T04:33:11;102093.47;;;19.28;100.00
62708;BME280;48769;51.624;5.886;2023-08-21T04:35:40;102103.34;;;19.28;100.00
62708;BME280;48769;51.624;5.886;2023-08-21T04:38:05;102103.53;;;19.25;100.00
62708;BME280;48769;51.624;5.886;2023-08-21T04:40:32;102103.75;;;19.22;100.00
62708;BME280;48769;51.624;5.886;2023-08-21T04:42:57;102114.56;;;19.20;100.00
62708;BME280;48769;51.624;5.886;2023-08-21T04:45:22;102110.16;;;19.19;100.00
62708;BME280;48769;51.624;5.886;2023-08-21T04:47:48;102109.41;;;19.17;100.00
62708;BME280;48769;51.624;5.886;2023-08-21T04:50:13;102103.19;;;19.17;100.00
62708;BME280;48769;51.624;5.886;2023-08-21T04:52:40;102106.00;;;19.15;100.00
62708;BME280;48769;51.624;5.886;2023-08-21T04:55:06;102106.94;;;19.14;100.00
62708;BME280;48769;51.624;5.886;2023-08-21T04:57:32;102110.56;;;19.13;100.00
62708;BME280;48769;51.624;5.886;2023-08-21T04:59:57;102117.63;;;19.14;100.00
62708;BME280;48769;51.624;5.886;2023-08-21T05:02:22;102127.50;;;19.13;100.00
62708;BME280;48769;51.624;5.886;2023-08-21T05:04:48;102123.69;;;19.18;100.00
62708;BME280;48769;51.624;5.886;2023-08-21T05:07:13;102127.75;;;19.23;100.00
62708;BME280;48769;51.624;5.886;2023-08-21T05:09:38;102127.31;;;19.29;100.00
62708;BME280;48769;51.624;5.886;2023-08-21T05:12:05;102123.25;;;19.36;100.00
62708;BME280;48769;51.624;5.886;2023-08-21T05:14:30;102124.88;;;19.39;100.00
62708;BME280;48769;51.624;5.886;2023-08-21T05:16:56;102130.78;;;19.44;100.00
62708;BME280;48769;51.624;5.886;2023-08-21T05:19:21;102132.41;;;19.47;100.00
62708;BME280;48769;51.624;5.886;2023-08-21T05:21:46;102128.84;;;19.46;100.00
62708;BME280;48769;51.624;5.886;2023-08-21T05:24:12;102126.09;;;19.48;100.00
62708;BME280;48769;51.624;5.886;2023-08-21T05:26:38;102135.63;;;19.52;100.00
62708;BME280;48769;51.624;5.886;2023-08-21T05:29:03;102139.16;;;19.52;100.00
62708;BME280;48769;51.624;5.886;2023-08-21T05:31:29;102145.38;;;19.53;100.00
62708;BME280;48769;51.624;5.886;2023-08-21T05:33:54;102147.09;;;19.54;100.00
62708;BME280;48769;51.624;5.886;2023-08-21T05:36:20;102155.88;;;19.56;100.00
62708;BME280;48769;51.624;5.886;2023-08-21T05:38:45;102153.00;;;19.59;100.00
62708;BME280;48769;51.624;5.886;2023-08-21T05:41:13;102148.38;;;19.61;100.00
62708;BME280;48769;51.624;5.886;2023-08-21T05:43:38;102146.47;;;19.63;100.00
62708;BME280;48769;51.624;5.886;2023-08-21T05:46:05;102156.44;;;19.61;100.00
62708;BME280;48769;51.624;5.886;2023-08-21T05:48:31;102151.94;;;19.61;100.00
62708;BME280;48769;51.624;5.886;2023-08-21T05:50:56;102163.03;;;19.70;100.00
62708;BME280;48769;51.624;5.886;2023-08-21T05:53:22;102160.66;;;19.78;100.00
62708;BME280;48769;51.624;5.886;2023-08-21T05:55:47;102167.31;;;19.85;100.00
62708;BME280;48769;51.624;5.886;2023-08-21T05:58:13;102167.72;;;19.92;100.00
62708;BME280;48769;51.624;5.886;2023-08-21T06:00:38;102169.13;;;19.97;100.00
62708;BME280;48769;51.624;5.886;2023-08-21T06:03:04;102167.63;;;20.06;100.00
62708;BME280;48769;51.624;5.886;2023-08-21T06:05:30;102168.16;;;20.11;100.00
62708;BME280;48769;51.624;5.886;2023-08-21T06:07:55;102166.00;;;20.16;100.00
62708;BME280;48769;51.624;5.886;2023-08-21T06:10:21;102165.81;;;20.19;100.00
62708;BME280;48769;51.624;5.886;2023-08-21T06:12:46;102170.09;;;20.22;100.00
62708;BME280;48769;51.624;5.886;2023-08-21T06:15:13;102166.00;;;20.29;100.00
62708;BME280;48769;51.624;5.886;2023-08-21T06:17:39;102157.81;;;20.30;100.00
62708;BME280;48769;51.624;5.886;2023-08-21T06:20:05;102168.13;;;20.37;100.00
62708;BME280;48769;51.624;5.886;2023-08-21T06:22:31;102163.16;;;20.43;100.00
62708;BME280;48769;51.624;5.886;2023-08-21T06:24:57;102168.09;;;20.49;100.00
62708;BME280;48769;51.624;5.886;2023-08-21T06:27:22;102161.34;;;20.57;100.00
62708;BME280;48769;51.624;5.886;2023-08-21T06:29:47;102164.84;;;20.70;100.00
62708;BME280;48769;51.624;5.886;2023-08-21T06:32:13;102169.53;;;20.79;100.00
62708;BME280;48769;51.624;5.886;2023-08-21T06:34:38;102162.34;;;20.80;100.00
62708;BME280;48769;51.624;5.886;2023-08-21T06:37:04;102167.47;;;20.83;100.00
62708;BME280;48769;51.624;5.886;2023-08-21T06:39:29;102164.34;;;20.89;100.00
62708;BME280;48769;51.624;5.886;2023-08-21T06:41:54;102161.72;;;21.00;100.00
62708;BME280;48769;51.624;5.886;2023-08-21T06:44:20;102166.66;;;21.06;100.00
62708;BME280;48769;51.624;5.886;2023-08-21T06:46:45;102170.38;;;21.28;100.00
62708;BME280;48769;51.624;5.886;2023-08-21T06:49:10;102170.28;;;21.29;100.00
62708;BME280;48769;51.624;5.886;2023-08-21T06:51:36;102178.81;;;21.23;100.00
62708;BME280;48769;51.624;5.886;2023-08-21T06:54:01;102170.84;;;21.21;100.00
62708;BME280;48769;51.624;5.886;2023-08-21T06:56:26;102174.34;;;21.35;100.00
62708;BME280;48769;51.624;5.886;2023-08-21T06:58:52;102179.31;;;21.52;100.00
62708;BME280;48769;51.624;5.886;2023-08-21T07:01:17;102170.78;;;21.69;100.00
62708;BME280;48769;51.624;5.886;2023-08-21T07:03:42;102174.75;;;21.88;100.00
62708;BME280;48769;51.624;5.886;2023-08-21T07:06:08;102173.16;;;21.97;100.00
62708;BME280;48769;51.624;5.886;2023-08-21T07:08:33;102176.22;;;21.92;100.00
62708;BME280;48769;51.624;5.886;2023-08-21T07:11:02;102170.31;;;21.87;100.00
62708;BME280;48769;51.624;5.886;2023-08-21T07:13:29;102173.53;;;21.81;100.00
62708;BME280;48769;51.624;5.886;2023-08-21T07:15:54;102176.94;;;21.83;100.00
62708;BME280;48769;51.624;5.886;2023-08-21T07:18:20;102173.25;;;21.84;100.00
62708;BME280;48769;51.624;5.886;2023-08-21T07:20:45;102173.16;;;21.85;100.00
62708;BME280;48769;51.624;5.886;2023-08-21T07:23:10;102177.81;;;21.94;100.00
62708;BME280;48769;51.624;5.886;2023-08-21T07:25:36;102177.72;;;22.19;100.00
62708;BME280;48769;51.624;5.886;2023-08-21T07:28:02;102180.41;;;22.41;100.00
62708;BME280;48769;51.624;5.886;2023-08-21T07:30:27;102173.41;;;22.61;100.00
62708;BME280;48769;51.624;5.886;2023-08-21T07:32:53;102166.88;;;22.75;100.00
62708;BME280;48769;51.624;5.886;2023-08-21T07:35:18;102167.38;;;22.80;100.00
62708;BME280;48769;51.624;5.886;2023-08-21T07:37:45;102163.66;;;22.92;100.00
62708;BME280;48769;51.624;5.886;2023-08-21T07:40:11;102156.28;;;23.05;100.00
62708;BME280;48769;51.624;5.886;2023-08-21T07:42:36;102160.75;;;22.95;100.00
62708;BME280;48769;51.624;5.886;2023-08-21T07:45:04;102160.16;;;23.24;100.00
62708;BME280;48769;51.624;5.886;2023-08-21T07:47:30;102167.50;;;23.22;100.00
62708;BME280;48769;51.624;5.886;2023-08-21T07:49:56;102170.31;;;23.20;100.00
62708;BME280;48769;51.624;5.886;2023-08-21T07:52:22;102165.00;;;23.30;100.00
62708;BME280;48769;51.624;5.886;2023-08-21T07:54:54;102169.44;;;23.52;100.00
62708;BME280;48769;51.624;5.886;2023-08-21T07:57:19;102159.38;;;23.75;100.00
62708;BME280;48769;51.624;5.886;2023-08-21T07:59:44;102160.94;;;23.98;95.39
62708;BME280;48769;51.624;5.886;2023-08-21T08:02:10;102158.69;;;24.03;89.86
62708;BME280;48769;51.624;5.886;2023-08-21T08:04:38;102157.59;;;24.16;93.67
62708;BME280;48769;51.624;5.886;2023-08-21T08:07:03;102148.81;;;24.54;87.01
62708;BME280;48769;51.624;5.886;2023-08-21T08:09:28;102150.53;;;24.65;82.49
62708;BME280;48769;51.624;5.886;2023-08-21T08:11:54;102157.78;;;24.64;82.62
62708;BME280;48769;51.624;5.886;2023-08-21T08:14:19;102152.13;;;24.87;83.14
62708;BME280;48769;51.624;5.886;2023-08-21T08:16:44;102142.75;;;25.01;76.79
62708;BME280;48769;51.624;5.886;2023-08-21T08:19:10;102154.00;;;25.06;78.54
62708;BME280;48769;51.624;5.886;2023-08-21T08:21:35;102150.75;;;25.12;78.77
62708;BME280;48769;51.624;5.886;2023-08-21T08:24:01;102155.00;;;25.24;79.74
62708;BME280;48769;51.624;5.886;2023-08-21T08:26:27;102159.56;;;25.43;81.87
62708;BME280;48769;51.624;5.886;2023-08-21T08:28:52;102148.13;;;25.59;79.92
62708;BME280;48769;51.624;5.886;2023-08-21T08:31:18;102155.50;;;25.76;79.18
62708;BME280;48769;51.624;5.886;2023-08-21T08:33:44;102153.47;;;25.98;76.17
62708;BME280;48769;51.624;5.886;2023-08-21T08:36:09;102142.75;;;26.06;73.03
62708;BME280;48769;51.624;5.886;2023-08-21T08:38:35;102137.75;;;26.11;70.78
62708;BME280;48769;51.624;5.886;2023-08-21T08:41:02;102138.53;;;26.21;67.32
62708;BME280;48769;51.624;5.886;2023-08-21T08:43:27;102139.19;;;26.05;69.83
62708;BME280;48769;51.624;5.886;2023-08-21T08:45:56;102131.72;;;26.17;67.89
62708;BME280;48769;51.624;5.886;2023-08-21T08:48:23;102130.03;;;26.16;67.36
62708;BME280;48769;51.624;5.886;2023-08-21T08:50:50;102129.97;;;25.98;68.05
62708;BME280;48769;51.624;5.886;2023-08-21T08:53:17;102138.75;;;26.10;66.95
62708;BME280;48769;51.624;5.886;2023-08-21T08:55:43;102130.84;;;26.26;65.30
62708;BME280;48769;51.624;5.886;2023-08-21T08:58:08;102139.59;;;26.38;67.62
62708;BME280;48769;51.624;5.886;2023-08-21T09:00:34;102133.88;;;26.41;67.95
62708;BME280;48769;51.624;5.886;2023-08-21T09:02:59;102148.41;;;26.50;70.33
62708;BME280;48769;51.624;5.886;2023-08-21T09:05:24;102156.91;;;26.55;70.87
62708;BME280;48769;51.624;5.886;2023-08-21T09:08:22;102146.09;;;26.45;68.70
62708;BME280;48769;51.624;5.886;2023-08-21T09:10:47;102144.38;;;26.54;69.61
62708;BME280;48769;51.624;5.886;2023-08-21T09:13:18;102139.13;;;26.52;61.68
62708;BME280;48769;51.624;5.886;2023-08-21T09:15:45;102132.94;;;26.32;63.36
62708;BME280;48769;51.624;5.886;2023-08-21T09:18:12;102138.84;;;26.18;64.90
62708;BME280;48769;51.624;5.886;2023-08-21T09:20:38;102132.03;;;26.14;67.10
62708;BME280;48769;51.624;5.886;2023-08-21T09:23:03;102132.94;;;26.32;65.82
62708;BME280;48769;51.624;5.886;2023-08-21T09:25:34;102131.56;;;26.19;66.98
62708;BME280;48769;51.624;5.886;2023-08-21T09:27:59;102138.88;;;26.08;67.09
62708;BME280;48769;51.624;5.886;2023-08-21T09:30:24;102143.78;;;25.95;68.42
62708;BME280;48769;51.624;5.886;2023-08-21T09:32:54;102136.63;;;26.04;69.94
62708;BME280;48769;51.624;5.886;2023-08-21T09:35:20;102134.34;;;25.99;69.29
62708;BME280;48769;51.624;5.886;2023-08-21T09:37:46;102130.00;;;25.88;69.81
62708;BME280;48769;51.624;5.886;2023-08-21T09:40:12;102144.38;;;25.89;69.99
62708;BME280;48769;51.624;5.886;2023-08-21T09:42:39;102121.53;;;26.01;69.74
62708;BME280;48769;51.624;5.886;2023-08-21T09:45:04;102128.94;;;25.99;69.45
62708;BME280;48769;51.624;5.886;2023-08-21T09:47:31;102127.22;;;26.08;66.83
62708;BME280;48769;51.624;5.886;2023-08-21T09:49:57;102129.38;;;26.04;67.08
62708;BME280;48769;51.624;5.886;2023-08-21T09:52:22;102136.44;;;26.15;68.79
62708;BME280;48769;51.624;5.886;2023-08-21T09:54:49;102130.22;;;26.32;66.97
62708;BME280;48769;51.624;5.886;2023-08-21T09:57:17;102124.75;;;26.42;65.63
62708;BME280;48769;51.624;5.886;2023-08-21T09:59:42;102136.19;;;26.36;65.59
62708;BME280;48769;51.624;5.886;2023-08-21T10:02:09;102130.38;;;26.31;64.70
62708;BME280;48769;51.624;5.886;2023-08-21T10:04:35;102127.91;;;26.38;66.69
62708;BME280;48769;51.624;5.886;2023-08-21T10:07:02;102123.88;;;26.42;66.06
62708;BME280;48769;51.624;5.886;2023-08-21T10:09:29;102133.78;;;26.33;68.12
62708;BME280;48769;51.624;5.886;2023-08-21T10:11:55;102126.69;;;26.22;68.75
62708;BME280;48769;51.624;5.886;2023-08-21T10:14:22;102116.50;;;26.16;65.30
62708;BME280;48769;51.624;5.886;2023-08-21T10:16:51;102111.38;;;26.13;64.50
62708;BME280;48769;51.624;5.886;2023-08-21T10:19:17;102116.97;;;26.02;66.42
62708;BME280;48769;51.624;5.886;2023-08-21T10:21:46;102107.31;;;25.90;64.15
62708;BME280;48769;51.624;5.886;2023-08-21T10:24:12;102098.66;;;25.76;63.11
62708;BME280;48769;51.624;5.886;2023-08-21T10:26:38;102110.50;;;25.75;65.74
62708;BME280;48769;51.624;5.886;2023-08-21T10:29:05;102114.47;;;25.91;68.22
62708;BME280;48769;51.624;5.886;2023-08-21T10:31:37;102114.69;;;26.07;67.81
62708;BME280;48769;51.624;5.886;2023-08-21T10:34:06;102102.19;;;26.24;66.36
62708;BME280;48769;51.624;5.886;2023-08-21T10:39:20;102105.75;;;26.24;64.72
62708;BME280;48769;51.624;5.886;2023-08-21T10:42:01;102101.88;;;26.27;64.07
62708;BME280;48769;51.624;5.886;2023-08-21T10:44:48;102107.91;;;26.39;65.28
62708;BME280;48769;51.624;5.886;2023-08-21T10:47:32;102101.47;;;26.22;62.92
62708;BME280;48769;51.624;5.886;2023-08-21T10:50:06;102105.91;;;26.23;65.68
62708;BME280;48769;51.624;5.886;2023-08-21T10:52:39;102109.66;;;26.40;68.43
62708;BME280;48769;51.624;5.886;2023-08-21T10:55:07;102111.00;;;26.53;66.50
62708;BME280;48769;51.624;5.886;2023-08-21T10:57:35;102111.25;;;26.60;65.39
62708;BME280;48769;51.624;5.886;2023-08-21T11:00:04;102113.19;;;26.68;67.42
62708;BME280;48769;51.624;5.886;2023-08-21T11:02:31;102110.72;;;26.74;64.59
62708;BME280;48769;51.624;5.886;2023-08-21T11:04:58;102123.25;;;26.57;66.22
62708;BME280;48769;51.624;5.886;2023-08-21T11:07:24;102122.19;;;26.41;66.07
62708;BME280;48769;51.624;5.886;2023-08-21T11:09:50;102125.97;;;26.30;66.88
62708;BME280;48769;51.624;5.886;2023-08-21T11:12:20;102127.47;;;26.42;66.86
62708;BME280;48769;51.624;5.886;2023-08-21T11:14:47;102122.41;;;26.57;67.25
62708;BME280;48769;51.624;5.886;2023-08-21T11:17:13;102128.00;;;26.73;67.01
62708;BME280;48769;51.624;5.886;2023-08-21T11:19:39;102121.03;;;26.89;63.48
62708;BME280;48769;51.624;5.886;2023-08-21T11:22:05;102104.13;;;26.95;61.75
62708;BME280;48769;51.624;5.886;2023-08-21T11:24:45;102102.50;;;27.02;59.47
62708;BME280;48769;51.624;5.886;2023-08-21T11:27:12;102106.28;;;27.09;60.88
62708;BME280;48769;51.624;5.886;2023-08-21T11:29:44;102102.03;;;27.24;62.15
62708;BME280;48769;51.624;5.886;2023-08-21T11:32:13;102102.09;;;27.33;59.19
62708;BME280;48769;51.624;5.886;2023-08-21T11:34:40;102088.69;;;27.31;57.55
62708;BME280;48769;51.624;5.886;2023-08-21T11:37:06;102084.75;;;27.25;57.46
62708;BME280;48769;51.624;5.886;2023-08-21T11:39:42;102091.41;;;27.31;58.67
62708;BME280;48769;51.624;5.886;2023-08-21T11:42:09;102089.22;;;27.35;58.48
62708;BME280;48769;51.624;5.886;2023-08-21T11:44:51;102089.41;;;27.33;58.79
62708;BME280;48769;51.624;5.886;2023-08-21T11:47:19;102085.38;;;27.45;59.22
62708;BME280;48769;51.624;5.886;2023-08-21T11:49:45;102087.66;;;27.58;57.61
62708;BME280;48769;51.624;5.886;2023-08-21T11:52:13;102082.94;;;27.60;57.76
62708;BME280;48769;51.624;5.886;2023-08-21T11:54:40;102075.47;;;27.62;57.33
62708;BME280;48769;51.624;5.886;2023-08-21T11:57:12;102073.13;;;27.67;56.38
62708;BME280;48769;51.624;5.886;2023-08-21T11:59:38;102085.38;;;27.71;57.41
62708;BME280;48769;51.624;5.886;2023-08-21T12:02:18;102082.31;;;27.66;57.16
62708;BME280;48769;51.624;5.886;2023-08-21T12:04:44;102088.78;;;27.73;57.27
62708;BME280;48769;51.624;5.886;2023-08-21T12:07:10;102080.91;;;27.62;58.50
62708;BME280;48769;51.624;5.886;2023-08-21T12:09:35;102083.69;;;27.44;58.24
62708;BME280;48769;51.624;5.886;2023-08-21T12:12:00;102073.88;;;27.25;58.71
62708;BME280;48769;51.624;5.886;2023-08-21T12:14:27;102063.88;;;27.26;57.71
62708;BME280;48769;51.624;5.886;2023-08-21T12:16:53;102073.53;;;27.46;58.31
62708;BME280;48769;51.624;5.886;2023-08-21T12:19:19;102074.31;;;27.39;56.84
62708;BME280;48769;51.624;5.886;2023-08-21T12:21:45;102062.72;;;27.29;56.60
62708;BME280;48769;51.624;5.886;2023-08-21T12:24:10;102061.06;;;27.36;56.02
62708;BME280;48769;51.624;5.886;2023-08-21T12:26:35;102067.28;;;27.54;55.39
62708;BME280;48769;51.624;5.886;2023-08-21T12:29:01;102066.69;;;27.68;55.00
62708;BME280;48769;51.624;5.886;2023-08-21T12:31:28;102070.41;;;27.67;56.80
62708;BME280;48769;51.624;5.886;2023-08-21T12:33:54;102066.84;;;27.67;56.73
62708;BME280;48769;51.624;5.886;2023-08-21T12:36:19;102071.38;;;27.58;56.78
62708;BME280;48769;51.624;5.886;2023-08-21T12:38:44;102070.81;;;27.46;57.36
62708;BME280;48769;51.624;5.886;2023-08-21T12:41:10;102067.84;;;27.32;58.65
62708;BME280;48769;51.624;5.886;2023-08-21T12:43:35;102062.41;;;27.32;57.53